Terminal Aerodrome Forecast
Issued by NWS Wilmington, OH

Current Version | Previous Version | Text Only | Print | Product List | Glossary Off
Versions: 1 2 3 4 5 6 7 8 9 10 11 12 13 14 15 16 17 18

721
FTUS41 KILN 311730
TAFCMH
TAF
KCMH 311730Z 3118/0118 30008KT P6SM VCTS BKN040CB
      TEMPO 3118/3122 5SM -TSRA BR
     FM312200 36008KT P6SM BKN100
     FM010500 36006KT P6SM SCT004
     FM011300 36010KT P6SM SKC=

USA.gov is the U.S. government's official web portal to all federal, state and local government web resources and services.